Time;durP1;ratioP1;P1;durP2;ratioP2;P2;SDS_P1;SDS_P2;PMS_P1;PMS_P2;Temp;Humidity;BMP_temperature;BMP_pressure;BME280_temperature;BME280_humidity;BME280_pressure;Samples;Min_cycle;Max_cycle;Signal;HPM_P1;HPM_P2
2023/12/10 00:00:41;;;;;;;12.90;12.50;;;;;;;-141.02;100.00;39363.00;5114753;28;20219;-80
2023/12/10 00:03:08;;;;;;;13.10;12.70;;;;;;;-141.02;100.00;39363.00;5114452;28;20236;-80
2023/12/10 00:05:35;;;;;;;12.70;12.30;;;;;;;-141.02;100.00;39363.00;5114240;28;20288;-79
2023/12/10 00:08:04;;;;;;;13.00;12.60;;;;;;;-141.02;100.00;39363.00;5114630;28;20266;-79
2023/12/10 00:10:31;;;;;;;10.97;10.67;;;;;;;-141.02;100.00;39416.69;5114313;28;20228;-79
2023/12/10 00:12:58;;;;;;;11.00;10.70;;;;;;;-141.02;100.00;39410.94;5114439;28;20280;-80
2023/12/10 00:15:25;;;;;;;11.03;10.73;;;;;;;-141.02;100.00;39420.53;5114063;28;20722;-80
2023/12/10 00:17:53;;;;;;;11.87;11.47;;;;;;;-141.02;100.00;38818.38;5114450;28;20193;-80
2023/12/10 00:20:20;;;;;;;14.80;14.30;;;;;;;-141.02;100.00;39401.34;5114453;28;20641;-79
2023/12/10 00:22:47;;;;;;;14.00;13.50;;;;;;;-141.02;100.00;39412.84;5114277;28;20193;-80
2023/12/10 00:25:15;;;;;;;14.30;13.80;;;;;;;-141.02;100.00;39432.03;5113937;28;20193;-79
2023/12/10 00:27:42;;;;;;;14.77;14.27;;;;;;;-141.02;100.00;39384.09;5114267;28;20273;-81
2023/12/10 00:30:10;;;;;;;14.30;13.80;;;;;;;-141.02;100.00;39409.00;5113860;28;20631;-80
2023/12/10 00:32:37;;;;;;;13.87;13.37;;;;;;;-141.02;100.00;39366.81;5113909;28;20231;-79
2023/12/10 00:35:06;;;;;;;14.50;14.00;;;;;;;-141.02;100.00;39405.19;5113703;28;20271;-78
2023/12/10 00:37:34;;;;;;;14.53;14.03;;;;;;;-141.02;100.00;39387.91;5113790;28;20655;-78
2023/12/10 00:40:01;;;;;;;14.20;13.70;;;;;;;-141.02;100.00;39393.66;5113842;28;20288;-80
2023/12/10 00:42:29;;;;;;;13.90;13.40;;;;;;;-141.02;100.00;39384.09;5113624;28;20193;-78
2023/12/10 00:44:56;;;;;;;13.70;13.20;;;;;;;-141.02;100.00;39355.31;5113551;28;20295;-79
2023/12/10 00:47:23;;;;;;;13.60;13.10;;;;;;;-141.02;100.00;39391.75;5113763;28;20231;-78
2023/12/10 00:49:50;;;;;;;16.00;15.50;;;;;;;-141.02;100.00;39416.69;5113796;28;20688;-81
2023/12/10 00:52:17;;;;;;;13.80;13.30;;;;;;;-141.02;100.00;39382.16;5113401;28;20287;-78
2023/12/10 00:54:44;;;;;;;14.33;13.90;;;;;;;-141.02;100.00;39432.03;5113388;28;20284;-79
2023/12/10 00:57:12;;;;;;;15.10;14.60;;;;;;;-141.02;100.00;39478.06;5113640;28;20193;-80
2023/12/10 00:59:42;;;;;;;17.60;16.90;;;;;;;-141.02;100.00;39451.22;5113353;28;20280;-80
2023/12/10 01:02:09;;;;;;;14.47;13.97;;;;;;;-141.02;100.00;39432.03;5113603;28;20189;-77
2023/12/10 01:04:36;;;;;;;14.70;14.20;;;;;;;-141.02;100.00;39455.03;5113399;28;20250;-77
2023/12/10 01:07:07;;;;;;;14.30;13.80;;;;;;;-141.02;100.00;39516.41;5112797;28;20225;-80
2023/12/10 01:09:36;;;;;;;14.30;13.80;;;;;;;-141.02;100.00;39474.22;5113413;28;20608;-80
2023/12/10 01:12:03;;;;;;;14.40;13.90;;;;;;;-141.02;100.00;39504.91;5113113;28;20246;-78
2023/12/10 01:14:30;;;;;;;14.73;14.23;;;;;;;-141.02;100.00;39506.81;5113364;28;20555;-78
2023/12/10 01:16:59;;;;;;;13.63;13.13;;;;;;;-141.02;100.00;39512.56;5113150;28;20224;-78
2023/12/10 01:19:27;;;;;;;12.07;11.67;;;;;;;-141.02;100.00;39313.13;5112969;28;20659;-76
2023/12/10 01:21:54;;;;;;;11.50;11.20;;;;;;;-141.02;100.00;39543.25;5112860;28;20284;-80
2023/12/10 01:24:21;;;;;;;11.30;11.00;;;;;;;-141.02;100.00;39608.47;5112906;28;20236;-79
2023/12/10 01:26:48;;;;;;;11.10;10.80;;;;;;;-141.02;100.00;39558.59;5112885;28;20254;-79
2023/12/10 01:29:15;;;;;;;10.67;10.37;;;;;;;-141.02;100.00;39577.78;5113167;28;20233;-77
2023/12/10 01:31:42;;;;;;;12.37;11.97;;;;;;;-141.02;100.00;39600.78;5113081;28;20196;-80
2023/12/10 01:34:11;;;;;;;11.50;11.20;;;;;;;-141.02;100.00;39600.78;5112985;27;20246;-78
2023/12/10 01:36:38;;;;;;;11.50;11.20;;;;;;;-141.02;100.00;39591.22;5112643;28;20261;-76
2023/12/10 01:39:05;;;;;;;11.87;11.57;;;;;;;-141.02;100.00;39627.66;5112578;28;20198;-75
2023/12/10 01:41:32;;;;;;;10.70;10.40;;;;;;;-141.02;100.00;39539.44;5112636;28;20276;-76
2023/12/10 01:43:59;;;;;;;11.10;10.80;;;;;;;-141.02;100.00;39669.84;5112900;28;20231;-76
2023/12/10 01:46:26;;;;;;;10.50;10.20;;;;;;;-141.02;100.00;39667.94;5112858;28;20689;-77
2023/12/10 01:48:55;;;;;;;10.20;9.90;;;;;;;-141.02;100.00;39671.75;5112475;28;20246;-77
2023/12/10 01:51:25;;;;;;;10.03;9.73;;;;;;;-141.02;100.00;39698.63;5112693;28;20197;-79
2023/12/10 01:53:53;;;;;;;10.03;9.73;;;;;;;-141.02;100.00;39715.88;5112482;28;20225;-77
2023/12/10 01:56:22;;;;;;;11.33;11.03;;;;;;;-141.02;100.00;39750.41;5112273;28;20312;-79
2023/12/10 01:59:00;;;;;;;11.20;10.90;;;;;;;-141.02;100.00;39769.56;5112402;28;20193;-75
2023/12/10 02:01:27;;;;;;;11.00;10.70;;;;;;;-141.02;100.00;39719.72;5112613;28;20231;-77
2023/12/10 02:03:55;;;;;;;10.83;10.53;;;;;;;-141.02;100.00;39698.63;5112416;28;20200;-75
2023/12/10 02:06:25;;;;;;;10.70;10.40;;;;;;;-141.02;100.00;39669.84;5112688;28;20196;-80
2023/12/10 02:08:52;;;;;;;10.63;10.33;;;;;;;-141.02;100.00;39698.63;5112308;28;20200;-77
2023/12/10 02:11:20;;;;;;;10.43;10.13;;;;;;;-141.02;100.00;39677.50;5112292;28;20189;-80
2023/12/10 02:13:48;;;;;;;9.90;9.60;;;;;;;-141.02;100.00;39719.72;5112241;28;20675;-77
2023/12/10 02:16:17;;;;;;;9.70;9.40;;;;;;;-141.02;100.00;39733.13;5112276;28;20278;-76
2023/12/10 02:18:44;;;;;;;9.60;9.30;;;;;;;-141.02;100.00;39731.22;5116679;28;20253;-76
2023/12/10 02:21:12;;;;;;;9.50;9.20;;;;;;;-141.02;100.00;39746.56;5116753;28;20228;-77
2023/12/10 02:23:51;;;;;;;8.90;8.70;;;;;;;-141.02;100.00;39800.25;5116628;28;20279;-76
2023/12/10 02:26:19;;;;;;;9.00;8.80;;;;;;;-141.02;100.00;39783.00;5116450;28;20228;-79
2023/12/10 02:28:46;;;;;;;8.80;8.60;;;;;;;-141.02;100.00;39765.75;5116262;28;20672;-77
2023/12/10 02:31:13;;;;;;;8.63;8.43;;;;;;;-141.02;100.00;39781.09;5116208;28;20683;-76
2023/12/10 02:33:40;;;;;;;8.70;8.50;;;;;;;-141.02;100.00;39781.09;5116613;28;20201;-75
2023/12/10 02:36:08;;;;;;;8.80;8.60;;;;;;;-141.02;100.00;39773.41;5116033;28;20603;-75
2023/12/10 02:38:35;;;;;;;8.57;8.37;;;;;;;-141.02;100.00;39807.94;5116415;28;20193;-74
2023/12/10 02:41:02;;;;;;;9.03;8.83;;;;;;;-141.02;100.00;39792.59;5149153;27;20236;-75
2023/12/10 02:43:31;;;;;;;9.10;8.80;;;;;;;-141.02;100.00;39815.59;5116242;28;20197;-76
2023/12/10 02:45:58;;;;;;;8.77;8.57;;;;;;;-141.02;100.00;39819.44;5115862;28;20200;-74
2023/12/10 02:48:25;;;;;;;8.80;8.60;;;;;;;-141.02;100.00;39829.03;5115829;28;20232;-77
2023/12/10 02:50:54;;;;;;;8.10;7.90;;;;;;;-141.02;100.00;39815.59;5116090;28;20193;-76
2023/12/10 02:53:22;;;;;;;8.30;8.10;;;;;;;-141.02;100.00;39865.47;5115516;28;20229;-74
2023/12/10 02:55:49;;;;;;;8.13;7.93;;;;;;;-141.02;100.00;39830.94;5115908;28;20205;-75
2023/12/10 02:58:16;;;;;;;9.07;8.83;;;;;;;-141.02;100.00;39846.28;5116017;28;20230;-77
2023/12/10 03:00:45;;;;;;;9.43;9.13;;;;;;;-141.02;100.00;39873.16;5115925;28;20193;-74
2023/12/10 03:03:12;;;;;;;9.70;9.40;;;;;;;-141.02;100.00;39865.47;5116024;28;20254;-75
2023/12/10 03:05:39;;;;;;;9.43;9.13;;;;;;;-141.02;100.00;39880.81;5115526;28;20639;-74
2023/12/10 03:08:06;;;;;;;9.03;8.80;;;;;;;-141.02;100.00;39896.16;5115832;28;20197;-76
2023/12/10 03:10:33;;;;;;;10.87;10.57;;;;;;;-141.02;100.00;39896.16;5115400;28;20693;-75
2023/12/10 03:13:00;;;;;;;11.40;11.10;;;;;;;-141.02;100.00;39884.66;5115409;28;20228;-75
2023/12/10 03:15:27;;;;;;;10.13;9.83;;;;;;;-141.02;100.00;39911.50;5115317;28;20721;-74
2023/12/10 03:17:55;;;;;;;9.50;9.20;;;;;;;-141.02;100.00;39877.00;5115215;28;20286;-71
2023/12/10 03:20:22;;;;;;;9.40;9.10;;;;;;;-141.02;100.00;39926.84;5115586;28;20651;-75
2023/12/10 03:22:49;;;;;;;9.10;8.90;;;;;;;-141.02;100.00;39942.19;5115151;28;20663;-75
2023/12/10 03:25:16;;;;;;;9.00;8.80;;;;;;;-141.02;100.00;39984.41;5115145;28;20659;-72
2023/12/10 03:27:43;;;;;;;11.10;10.80;;;;;;;-141.02;100.00;40009.34;5115183;28;20659;-76
2023/12/10 03:30:10;;;;;;;11.03;10.73;;;;;;;-141.02;100.00;40061.13;5114557;28;20229;-75
2023/12/10 03:32:37;;;;;;;8.70;8.50;;;;;;;-141.02;100.00;40003.59;5115061;28;20232;-72
2023/12/10 03:35:07;;;;;;;9.27;8.97;;;;;;;-141.02;100.00;39965.22;5115272;28;20276;-75
2023/12/10 03:37:34;;;;;;;9.33;9.03;;;;;;;-141.02;100.00;40030.44;5115211;28;20311;-74
2023/12/10 03:40:01;;;;;;;9.57;9.27;;;;;;;-141.02;100.00;40064.97;5114857;27;20197;-72
2023/12/10 03:42:28;;;;;;;10.93;10.63;;;;;;;-141.02;100.00;40026.59;5115154;28;20193;-72
2023/12/10 03:44:57;;;;;;;11.30;11.00;;;;;;;-141.02;100.00;40087.97;5115108;28;20254;-74
2023/12/10 03:47:24;;;;;;;10.40;10.10;;;;;;;-141.02;100.00;40103.31;5114987;28;20193;-70
2023/12/10 03:49:51;;;;;;;8.80;8.60;;;;;;;-141.02;100.00;40116.75;5115296;28;20189;-71
2023/12/10 03:52:19;;;;;;;9.50;9.20;;;;;;;-141.02;100.00;40149.38;5114855;28;20224;-75
2023/12/10 03:54:46;;;;;;;8.70;8.50;;;;;;;-141.02;100.00;40187.72;5114233;28;20228;-71
2023/12/10 03:57:13;;;;;;;8.80;8.60;;;;;;;-141.02;100.00;40172.38;5114765;28;20283;-74
2023/12/10 03:59:40;;;;;;;11.47;11.17;;;;;;;-141.02;100.00;40153.19;5114796;28;20232;-74
2023/12/10 04:02:07;;;;;;;12.93;12.53;;;;;;;-141.02;100.00;40137.84;5114498;28;20236;-71
2023/12/10 04:04:34;;;;;;;11.77;11.37;;;;;;;-141.02;100.00;40134.00;5114426;28;20193;-71
2023/12/10 04:07:01;;;;;;;11.70;11.30;;;;;;;-141.02;100.00;40111.00;5114427;28;20190;-74
2023/12/10 04:09:30;;;;;;;11.87;11.47;;;;;;;-141.02;100.00;40114.84;5114643;28;20193;-73
2023/12/10 04:11:57;;;;;;;11.53;11.13;;;;;;;-141.02;100.00;40126.34;5114249;28;20196;-73
2023/12/10 04:14:24;;;;;;;12.87;12.47;;;;;;;-141.02;100.00;40162.78;5114243;28;20193;-73
2023/12/10 04:16:52;;;;;;;13.13;12.73;;;;;;;-141.02;100.00;40233.75;5114310;28;20695;-73
2023/12/10 04:19:18;;;;;;;12.83;12.43;;;;;;;-141.02;100.00;40195.41;5114495;28;20197;-74
2023/12/10 04:21:45;;;;;;;10.63;10.33;;;;;;;-141.02;100.00;40306.66;5114314;28;20640;-71
2023/12/10 04:24:15;;;;;;;10.57;10.27;;;;;;;-141.02;100.00;40322.00;5114063;28;20300;-72
2023/12/10 04:26:43;;;;;;;9.57;9.27;;;;;;;-141.02;100.00;40314.34;5113946;28;20197;-73
2023/12/10 04:29:10;;;;;;;10.20;9.90;;;;;;;-141.02;100.00;40368.03;5114527;28;20250;-73
2023/12/10 04:31:38;;;;;;;10.03;9.73;;;;;;;-141.02;100.00;40341.19;5114227;28;20663;-72
2023/12/10 04:34:05;;;;;;;10.90;10.60;;;;;;;-141.02;100.00;40302.81;5114234;28;20196;-71
2023/12/10 04:36:32;;;;;;;10.97;10.67;;;;;;;-141.02;100.00;40318.16;5114090;28;20220;-72
2023/12/10 04:38:59;;;;;;;9.17;8.90;;;;;;;-141.02;100.00;40360.38;5114040;28;20716;-72
2023/12/10 04:41:26;;;;;;;9.37;9.07;;;;;;;-141.02;100.00;40433.28;5113897;28;20224;-72
2023/12/10 04:43:54;;;;;;;9.10;8.90;;;;;;;-141.02;100.00;40463.97;5113601;28;20226;-71
2023/12/10 04:46:21;;;;;;;8.40;8.20;;;;;;;-141.02;100.00;40582.91;5113619;28;20286;-71
2023/12/10 04:48:48;;;;;;;10.20;9.90;;;;;;;-141.02;100.00;40650.06;5113615;28;20663;-72
2023/12/10 04:51:15;;;;;;;9.77;9.47;;;;;;;-141.02;100.00;40682.66;5113430;28;20235;-71
2023/12/10 04:53:42;;;;;;;10.30;10.00;;;;;;;-141.02;100.00;40774.75;5113244;28;20257;-71
2023/12/10 04:56:10;;;;;;;9.70;9.40;;;;;;;-141.02;100.00;40889.88;5113275;28;20652;-71
2023/12/10 04:58:37;;;;;;;9.80;9.50;;;;;;;-141.02;100.00;41012.66;5113274;28;20193;-70
2023/12/10 05:01:07;;;;;;;9.70;9.40;;;;;;;-141.02;100.00;41127.78;5113291;28;20243;-71
2023/12/10 05:03:34;;;;;;;10.50;10.20;;;;;;;-141.02;100.00;41168.09;5113522;28;20193;-70
2023/12/10 05:06:01;;;;;;;11.67;11.27;;;;;;;-141.02;100.00;41264.03;5113458;28;20189;-71
2023/12/10 05:08:28;;;;;;;11.97;11.57;;;;;;;-141.02;100.00;41204.53;5113449;28;20201;-71
2023/12/10 05:10:55;;;;;;;11.63;11.27;;;;;;;-141.02;100.00;41308.16;5113124;28;20193;-70
2023/12/10 05:13:22;;;;;;;8.60;8.40;;;;;;;-141.02;100.00;41421.38;5113009;28;20198;-69
2023/12/10 05:15:49;;;;;;;12.03;11.63;;;;;;;-141.02;100.00;41417.53;5113399;28;20189;-69
2023/12/10 05:18:17;;;;;;;15.20;14.70;;;;;;;-141.02;100.00;41423.28;5113017;28;20309;-70
2023/12/10 05:20:45;;;;;;;11.43;11.13;;;;;;;-141.02;100.00;41555.72;5113275;28;20284;-70
2023/12/10 05:23:12;;;;;;;12.90;12.50;;;;;;;-141.02;100.00;41672.78;5113253;28;20220;-70
2023/12/10 05:25:39;;;;;;;11.90;11.60;;;;;;;-141.02;100.00;41576.81;5112879;28;20193;-68
2023/12/10 05:28:06;;;;;;;11.27;10.97;;;;;;;-141.02;100.00;41571.06;5112833;28;20232;-69
2023/12/10 05:30:33;;;;;;;10.70;10.40;;;;;;;-141.02;100.00;41780.25;5113212;28;20229;-69
2023/12/10 05:33:00;;;;;;;10.67;10.37;;;;;;;-141.02;100.00;42045.09;5112953;28;20250;-69
2023/12/10 05:35:28;;;;;;;11.20;10.90;;;;;;;-141.02;100.00;42480.81;5112782;28;20279;-71
2023/12/10 05:37:55;;;;;;;11.33;11.03;;;;;;;-141.02;100.00;42832.09;5112903;28;20769;-69
2023/12/10 05:40:25;;;;;;;12.53;12.13;;;;;;;-141.02;100.00;43131.59;5112916;28;20623;-70
2023/12/10 05:42:52;;;;;;;11.13;10.83;;;;;;;-141.02;100.00;43296.72;5112605;28;20624;-69
2023/12/10 05:45:19;;;;;;;10.27;9.97;;;;;;;-141.02;100.00;43386.94;5112506;28;20225;-70
2023/12/10 05:47:46;;;;;;;8.37;8.17;;;;;;;-141.02;100.00;43450.31;5112822;28;20659;-70
2023/12/10 05:50:13;;;;;;;10.50;10.20;;;;;;;-141.02;100.00;43715.28;5112755;28;20224;-70
2023/12/10 05:52:44;;;;;;;7.40;7.20;;;;;;;-141.02;100.00;44084.00;5112061;28;20193;-68
2023/12/10 05:55:11;;;;;;;7.77;7.57;;;;;;;-141.02;100.00;44423.94;5112304;28;20229;-70
2023/12/10 05:57:38;;;;;;;7.73;7.53;;;;;;;-141.02;100.00;44896.47;5112696;28;20768;-70
2023/12/10 06:00:07;;;;;;;6.97;6.77;;;;;;;-141.02;100.00;45582.28;5112735;28;20225;-70
2023/12/10 06:02:34;;;;;;;7.40;7.20;;;;;;;-141.02;100.00;46316.31;5112327;28;20601;-70
2023/12/10 06:05:01;;;;;;;7.77;7.57;;;;;;;-141.02;100.00;47446.50;5112695;28;20193;-70
2023/12/10 06:07:28;;;;;;;7.60;7.40;;;;;;;-141.02;100.00;47854.06;5112327;28;20240;-71
2023/12/10 06:09:56;;;;;;;7.30;7.10;;;;;;;-141.02;100.00;48261.69;5112748;28;20231;-70
2023/12/10 06:12:23;;;;;;;7.80;7.60;;;;;;;-141.02;100.00;48584.72;5112665;28;20189;-70
2023/12/10 06:14:50;;;;;;;7.87;7.67;;;;;;;-141.02;100.00;48425.13;5112544;28;20193;-71
2023/12/10 06:17:18;;;;;;;7.70;7.50;;;;;;;-141.02;100.00;48773.19;5112518;28;20303;-71
2023/12/10 06:19:45;;;;;;;7.30;7.10;;;;;;;-141.02;100.00;49084.75;5112211;28;20219;-71
2023/12/10 06:22:12;;;;;;;8.10;7.90;;;;;;;-141.02;100.00;49384.81;5112617;28;20276;-70
2023/12/10 06:24:39;;;;;;;6.30;6.20;;;;;;;-141.02;100.00;49130.91;5112843;28;20258;-70
2023/12/10 06:27:07;;;;;;;6.63;6.47;;;;;;;-141.02;100.00;49165.53;5112178;28;20250;-71
2023/12/10 06:29:34;;;;;;;7.57;7.37;;;;;;;-141.02;100.00;49165.53;5112546;28;20225;-71
2023/12/10 06:32:01;;;;;;;7.20;7.00;;;;;;;-141.02;100.00;48942.44;5112137;28;20232;-71
2023/12/10 06:34:28;;;;;;;7.10;6.90;;;;;;;-141.02;100.00;49250.16;5112435;28;20375;-71
2023/12/10 06:36:55;;;;;;;7.67;7.47;;;;;;;-141.02;100.00;48923.19;5112309;28;20259;-71
2023/12/10 06:39:23;;;;;;;7.27;7.07;;;;;;;-141.02;100.00;48859.72;5112172;28;20201;-71
2023/12/10 06:41:50;;;;;;;7.83;7.63;;;;;;;-141.02;100.00;48623.19;5112043;28;20193;-71
2023/12/10 06:44:21;;;;;;;7.30;7.10;;;;;;;-141.02;100.00;48461.66;5112060;28;20756;-71
2023/12/10 06:46:49;;;;;;;7.60;7.40;;;;;;;-141.02;100.00;48423.19;5112008;28;20221;-71
2023/12/10 06:49:16;;;;;;;8.10;7.90;;;;;;;-141.02;100.00;48646.25;5112220;28;20193;-71
2023/12/10 06:51:43;;;;;;;8.50;8.30;;;;;;;-141.02;100.00;50127.34;5111931;28;20233;-72
2023/12/10 06:54:10;;;;;;;7.90;7.70;;;;;;;-141.02;100.00;51024.00;5112035;28;20225;-72
2023/12/10 06:56:39;;;;;;;7.77;7.57;;;;;;;-141.02;100.00;50669.94;5111864;28;20201;-72
2023/12/10 06:59:07;;;;;;;7.60;7.40;;;;;;;-141.02;100.00;52036.41;5112104;28;20213;-72
2023/12/10 07:01:37;;;;;;;8.00;7.80;;;;;;;-141.02;100.00;52313.59;5112129;28;20193;-72
2023/12/10 07:04:05;;;;;;;7.20;7.00;;;;;;;-141.02;100.00;51568.66;5113324;28;20224;-72
2023/12/10 07:06:32;;;;;;;6.90;6.70;;;;;;;-141.02;100.00;50315.91;5115799;28;20198;-71
2023/12/10 07:08:58;;;;;;;6.80;6.60;;;;;;;-141.02;100.00;48346.28;5115566;28;20568;-70
2023/12/10 07:11:25;;;;;;;7.93;7.73;;;;;;;-141.02;100.00;46300.94;5115413;28;20647;-70
2023/12/10 07:13:53;;;;;;;8.10;7.90;;;;;;;-141.02;100.00;46656.47;5115444;28;20562;-70
2023/12/10 07:16:20;;;;;;;8.50;8.30;;;;;;;-141.02;100.00;46358.59;5115603;28;20197;-70
2023/12/10 07:18:48;;;;;;;9.77;9.47;;;;;;;-141.02;100.00;46151.06;5115137;28;20316;-68
2023/12/10 07:21:15;;;;;;;10.20;9.90;;;;;;;-141.02;100.00;44564.16;5115655;28;20236;-70
2023/12/10 07:23:42;;;;;;;11.73;11.33;;;;;;;-141.02;100.00;43842.03;5115466;28;20290;-70
2023/12/10 07:26:09;;;;;;;11.33;11.03;;;;;;;-141.02;100.00;43757.53;5115145;28;20288;-70
2023/12/10 07:28:37;;;;;;;12.07;11.67;;;;;;;-141.02;100.00;44410.50;5115437;28;20201;-69
2023/12/10 07:31:04;;;;;;;11.97;11.57;;;;;;;-141.02;100.00;44226.13;5115364;28;20276;-69
2023/12/10 07:33:31;;;;;;;13.90;13.40;;;;;;;-141.02;100.00;43938.06;5115084;28;20643;-71
2023/12/10 07:35:59;;;;;;;15.53;14.93;;;;;;;-141.02;100.00;43699.94;5115225;28;20228;-71
2023/12/10 07:38:26;;;;;;;15.93;15.33;;;;;;;-141.02;100.00;43941.91;5115283;28;20697;-71
2023/12/10 07:40:53;;;;;;;14.67;14.17;;;;;;;-141.02;100.00;43830.50;5115172;28;20233;-71
2023/12/10 07:43:20;;;;;;;14.60;14.10;;;;;;;-141.02;100.00;43769.06;5114812;28;20722;-71
2023/12/10 07:45:47;;;;;;;15.60;15.00;;;;;;;-141.02;100.00;43746.03;5114806;28;20233;-72
2023/12/10 07:48:15;;;;;;;16.27;15.67;;;;;;;-141.02;100.00;44084.00;5114974;28;20646;-72
2023/12/10 07:50:42;;;;;;;16.30;15.70;;;;;;;-141.02;100.00;43304.38;5115037;28;20193;-72
2023/12/10 07:53:11;;;;;;;18.73;17.97;;;;;;;-141.02;100.00;43603.94;5114487;28;20233;-72
2023/12/10 07:55:38;;;;;;;18.47;17.77;;;;;;;-141.02;100.00;43152.72;5115009;28;20243;-72
2023/12/10 07:58:05;;;;;;;16.67;16.07;;;;;;;-141.02;100.00;43118.16;5114833;28;20734;-71
2023/12/10 08:00:32;;;;;;;16.73;16.13;;;;;;;-141.02;100.00;43592.41;5114831;28;20236;-71
2023/12/10 08:02:59;;;;;;;16.03;15.43;;;;;;;-141.02;100.00;43738.34;5114538;28;20732;-71
2023/12/10 08:05:26;;;;;;;15.57;14.97;;;;;;;-141.02;100.00;43653.84;5114398;28;20200;-71
2023/12/10 08:07:53;;;;;;;15.27;14.67;;;;;;;-141.02;100.00;43630.81;5114423;27;20235;-71
2023/12/10 08:10:21;;;;;;;17.03;16.33;;;;;;;-141.02;100.00;42862.81;5114648;28;20201;-71
2023/12/10 08:12:48;;;;;;;17.23;16.43;;;;;;;-141.02;100.00;42029.75;5114545;28;20225;-72
2023/12/10 08:15:15;;;;;;;16.27;15.57;;;;;;;-141.02;100.00;41691.97;5114229;28;20636;-71
2023/12/10 08:17:42;;;;;;;16.10;15.50;;;;;;;-141.02;100.00;41695.81;5114036;28;20778;-71
2023/12/10 08:20:11;;;;;;;15.20;14.70;;;;;;;-141.02;100.00;41544.19;5114452;28;20239;-70
2023/12/10 08:22:38;;;;;;;15.20;14.70;;;;;;;-141.02;100.00;41603.69;5114393;28;20193;-72
2023/12/10 08:25:06;;;;;;;15.80;15.20;;;;;;;-141.02;100.00;41572.97;5114072;28;20670;-72
2023/12/10 08:27:35;;;;;;;15.97;15.37;;;;;;;-141.02;100.00;41634.38;5113986;28;20197;-70
2023/12/10 08:30:02;;;;;;;15.60;15.00;;;;;;;-141.02;100.00;41707.31;5113927;28;20674;-71
2023/12/10 08:32:29;;;;;;;14.43;13.93;;;;;;;-141.02;100.00;41795.59;5114209;28;20221;-72
2023/12/10 08:34:56;;;;;;;15.10;14.60;;;;;;;-141.02;100.00;41937.63;5113734;28;20577;-71
2023/12/10 08:37:23;;;;;;;14.67;14.17;;;;;;;-141.02;100.00;41968.31;5114130;28;20231;-71
2023/12/10 08:39:50;;;;;;;14.90;14.40;;;;;;;-141.02;100.00;42106.50;5114106;28;20236;-71
2023/12/10 08:42:17;;;;;;;13.73;13.27;;;;;;;-141.02;100.00;42283.09;5113701;28;20189;-71
2023/12/10 08:44:46;;;;;;;13.40;13.00;;;;;;;-141.02;100.00;42563.34;5113696;28;20683;-71
2023/12/10 08:47:13;;;;;;;15.67;15.00;;;;;;;-141.02;100.00;42715.00;5113501;28;20675;-72
2023/12/10 08:49:40;;;;;;;12.10;11.70;;;;;;;-141.02;100.00;42981.84;5113521;28;20240;-71
2023/12/10 08:52:07;;;;;;;11.90;11.50;;;;;;;-141.02;100.00;43707.63;5113462;28;20724;-71
2023/12/10 08:54:34;;;;;;;11.23;10.93;;;;;;;-141.02;100.00;44990.59;5113274;28;20264;-71
2023/12/10 08:57:01;;;;;;;9.70;9.40;;;;;;;-141.02;100.00;44890.69;5113684;28;20273;-70
2023/12/10 08:59:28;;;;;;;10.20;9.90;;;;;;;-141.02;100.00;45730.25;5113217;28;20224;-70
2023/12/10 09:01:56;;;;;;;10.50;10.20;;;;;;;-141.02;100.00;45981.97;5113345;28;20691;-70
2023/12/10 09:04:23;;;;;;;11.60;11.20;;;;;;;-141.02;100.00;44971.38;5113193;28;20197;-70
2023/12/10 09:06:50;;;;;;;10.83;10.53;;;;;;;-141.02;100.00;45142.34;5113225;28;20232;-71
2023/12/10 09:09:17;;;;;;;11.03;10.73;;;;;;;-141.02;100.00;44713.97;5113486;28;20254;-71
2023/12/10 09:11:46;;;;;;;12.00;11.60;;;;;;;-141.02;100.00;44735.09;5113411;28;20635;-73
2023/12/10 09:14:13;;;;;;;13.20;12.80;;;;;;;-141.02;100.00;45163.47;5113163;28;20224;-71
2023/12/10 09:16:40;;;;;;;14.80;14.30;;;;;;;-141.02;100.00;44679.41;5113039;28;20233;-72
2023/12/10 09:19:09;;;;;;;16.60;15.90;;;;;;;-141.02;100.00;44591.03;5113207;28;20231;-72
2023/12/10 09:21:36;;;;;;;17.00;16.30;;;;;;;-141.02;100.00;43484.88;5113294;28;20193;-72
2023/12/10 09:24:03;;;;;;;15.40;14.80;;;;;;;-141.02;100.00;44283.75;5112964;28;20682;-73
2023/12/10 09:26:30;;;;;;;14.60;14.00;;;;;;;-141.02;100.00;44026.38;5112595;28;20283;-73
2023/12/10 09:28:57;;;;;;;13.50;13.00;;;;;;;-141.02;100.00;44495.00;5112836;28;20204;-74
2023/12/10 09:31:24;;;;;;;13.60;13.10;;;;;;;-141.02;100.00;44794.66;5112870;28;20689;-75
2023/12/10 09:33:51;;;;;;;14.80;14.20;;;;;;;-141.02;100.00;44110.88;5112704;28;20224;-76
2023/12/10 09:36:20;;;;;;;14.27;13.77;;;;;;;-141.02;100.00;44767.75;5113158;28;20276;-77
2023/12/10 09:38:47;;;;;;;15.47;14.87;;;;;;;-141.02;100.00;44372.09;5112693;28;20271;-78
2023/12/10 09:41:14;;;;;;;15.80;15.20;;;;;;;-141.02;100.00;44160.81;5112640;28;20189;-78
2023/12/10 09:43:41;;;;;;;15.83;15.23;;;;;;;-141.02;100.00;44445.06;5112680;28;20236;-78
2023/12/10 09:46:09;;;;;;;17.60;16.80;;;;;;;-141.02;100.00;44118.56;5112575;28;20627;-77
2023/12/10 09:48:40;;;;;;;18.27;17.47;;;;;;;-141.02;100.00;43941.91;5112532;28;20229;-81
2023/12/10 09:51:07;;;;;;;17.47;16.67;;;;;;;-141.02;100.00;43759.47;5112765;28;20274;-81
2023/12/10 09:53:35;;;;;;;18.10;17.20;;;;;;;-141.02;100.00;43554.00;5112408;28;20225;-79
2023/12/10 09:56:02;;;;;;;16.83;16.03;;;;;;;-141.02;100.00;43630.81;5112536;28;20224;-78
2023/12/10 09:58:30;;;;;;;16.13;15.43;;;;;;;-141.02;100.00;43991.81;5112324;28;20252;-83
2023/12/10 10:00:59;;;;;;;17.97;17.07;;;;;;;-141.02;100.00;43907.31;5112463;28;20228;-86
2023/12/10 10:03:27;;;;;;;18.00;17.10;;;;;;;-141.02;100.00;43842.03;5112630;28;20193;-85
2023/12/10 10:05:55;;;;;;;17.63;16.73;;;;;;;-141.02;100.00;43726.81;5112552;28;20228;-87
2023/12/10 10:08:22;;;;;;;18.03;17.03;;;;;;;-141.02;100.00;43891.97;5112480;28;20212;-89
2023/12/10 10:10:52;;;;;;;19.13;17.93;;;;;;;-141.02;100.00;43434.94;5113025;28;20189;-86
2023/12/10 10:13:20;;;;;;;18.20;17.20;;;;;;;-141.02;100.00;43072.06;5113177;28;20558;-86
2023/12/10 10:15:47;;;;;;;17.57;16.67;;;;;;;-141.02;100.00;43335.09;5115369;28;20247;-84
2023/12/10 10:18:14;;;;;;;18.30;17.40;;;;;;;-141.02;100.00;43312.06;5117580;28;20248;-84
2023/12/10 10:20:42;;;;;;;18.77;17.77;;;;;;;-141.02;100.00;43289.03;5114433;28;20197;-86
2023/12/10 10:23:09;;;;;;;17.33;16.43;;;;;;;-141.02;100.00;43465.66;5112311;28;20730;-83
2023/12/10 10:25:36;;;;;;;18.17;17.20;;;;;;;-141.02;100.00;43325.50;5112677;28;20189;-83
2023/12/10 10:28:09;;;;;;;17.37;16.37;;;;;;;-141.02;100.00;43271.75;5112299;28;20228;-87
2023/12/10 10:30:36;;;;;;;18.13;17.03;;;;;;;-141.02;100.00;43377.34;5112572;28;20221;-86
2023/12/10 10:33:03;;;;;;;18.33;17.33;;;;;;;-141.02;100.00;43456.06;5112225;28;20730;-84
2023/12/10 10:35:30;;;;;;;18.77;17.67;;;;;;;-141.02;100.00;43369.66;5112263;28;20254;-86
2023/12/10 10:37:57;;;;;;;18.43;17.33;;;;;;;-141.02;100.00;43398.47;5113060;28;20229;-84
2023/12/10 10:40:25;;;;;;;17.97;16.97;;;;;;;-141.02;100.00;43323.59;5116143;28;20194;-83
2023/12/10 10:42:52;;;;;;;17.80;16.70;;;;;;;-141.02;100.00;43450.31;5116081;28;20232;-86
2023/12/10 10:45:20;;;;;;;17.90;16.80;;;;;;;-141.02;100.00;43223.75;5116278;28;20231;-84
2023/12/10 10:47:48;;;;;;;17.80;16.60;;;;;;;-141.02;100.00;43471.44;5116019;28;20232;-86
2023/12/10 10:50:17;;;;;;;20.20;18.70;;;;;;;-141.02;100.00;43235.28;5116204;28;20189;-87
2023/12/10 10:52:45;;;;;;;18.27;17.07;;;;;;;-141.02;100.00;43246.78;5116311;28;20228;-88
2023/12/10 10:55:13;;;;;;;18.50;17.30;;;;;;;-141.02;100.00;43362.00;5115722;28;20290;-86
2023/12/10 10:57:41;;;;;;;18.40;17.30;;;;;;;-141.02;100.00;43162.31;5115802;28;20236;-87
2023/12/10 11:00:35;;;;;;;18.57;17.37;;;;;;;-141.02;100.00;43258.31;5115960;28;20257;-85